createdAt,value
2022-07-28T00:02:41.415Z,0
2022-07-28T00:09:01.387Z,0
2022-07-28T00:15:24.417Z,0
2022-07-28T00:21:44.351Z,0
2022-07-28T00:28:07.414Z,0
2022-07-28T00:34:27.391Z,0
2022-07-28T00:40:50.341Z,0
2022-07-28T00:47:10.452Z,0
2022-07-28T00:53:33.362Z,0
2022-07-28T00:59:53.378Z,0
2022-07-28T01:06:16.406Z,0
2022-07-28T01:12:36.422Z,0
2022-07-28T01:18:59.422Z,0
2022-07-28T01:25:19.362Z,0
2022-07-28T01:31:42.398Z,0
2022-07-28T01:38:02.396Z,0
2022-07-28T01:44:25.423Z,0
2022-07-28T01:50:45.380Z,0
2022-07-28T01:57:08.386Z,0
2022-07-28T02:03:28.408Z,0
2022-07-28T02:09:51.339Z,0
2022-07-28T02:16:11.437Z,0
2022-07-28T02:22:34.471Z,0
2022-07-28T02:28:54.417Z,0
2022-07-28T02:35:17.413Z,0
2022-07-28T02:41:37.409Z,0
2022-07-28T02:48:00.334Z,0
2022-07-28T02:54:20.434Z,0
2022-07-28T03:00:43.373Z,0
2022-07-28T03:07:03.475Z,0
2022-07-28T03:13:26.365Z,1
2022-07-28T03:19:46.406Z,0
2022-07-28T03:43:47.836Z,21
2022-07-28T03:50:07.343Z,39
2022-07-28T03:56:30.421Z,66
2022-07-28T04:02:50.447Z,117
2022-07-28T04:09:13.343Z,190
2022-07-28T04:15:33.389Z,273
2022-07-28T04:21:56.360Z,308
2022-07-28T04:28:16.494Z,396
2022-07-28T04:34:39.405Z,431
2022-07-28T04:40:59.558Z,483
2022-07-28T04:47:22.412Z,478
2022-07-28T04:53:42.365Z,455
2022-07-28T05:00:05.466Z,478
2022-07-28T05:06:25.414Z,541
2022-07-28T05:12:48.342Z,666
2022-07-28T05:19:08.479Z,900
2022-07-28T05:25:31.383Z,1147
2022-07-28T05:31:51.600Z,1223
2022-07-28T05:38:14.348Z,1156
2022-07-28T05:44:38.125Z,987
2022-07-28T05:50:57.376Z,975
2022-07-28T05:57:17.357Z,1061
2022-07-28T06:03:42.428Z,1053
2022-07-28T06:10:00.364Z,1088
2022-07-28T06:16:23.639Z,1176
2022-07-28T06:22:43.379Z,1232
2022-07-28T06:29:06.377Z,1220
2022-07-28T06:35:26.380Z,1155
2022-07-28T06:41:49.341Z,1120
2022-07-28T06:48:09.368Z,1079
2022-07-28T06:54:32.374Z,1118
2022-07-28T07:00:52.395Z,1133
2022-07-28T07:07:16.802Z,1159
2022-07-28T07:13:35.363Z,1174
2022-07-28T07:19:58.384Z,1220
2022-07-28T07:26:18.413Z,1266
2022-07-28T07:32:41.354Z,1287
2022-07-28T07:39:01.361Z,1316
2022-07-28T07:45:24.332Z,1404
2022-07-28T07:51:44.342Z,1391
2022-07-28T07:58:07.348Z,1477
2022-07-28T08:04:28.694Z,1562
2022-07-28T08:10:50.655Z,1534
2022-07-28T08:17:10.328Z,1668
2022-07-28T08:23:33.321Z,1741
2022-07-28T08:29:53.370Z,1749
2022-07-28T08:36:16.443Z,1881
2022-07-28T08:42:36.389Z,2000
2022-07-28T09:05:43.342Z,2175
2022-07-28T09:12:06.336Z,2292
2022-07-28T09:18:26.381Z,2430
2022-07-28T09:24:49.354Z,2737
2022-07-28T09:31:09.368Z,2867
2022-07-28T09:37:32.351Z,2983
2022-07-28T09:43:55.095Z,3009
2022-07-28T09:50:15.390Z,2995
2022-07-28T09:56:35.349Z,3218
2022-07-28T10:02:58.397Z,3283
2022-07-28T10:09:18.400Z,3282
2022-07-28T10:15:42.459Z,3459
2022-07-28T10:22:01.405Z,3408
2022-07-28T10:28:24.317Z,3592
2022-07-28T10:34:44.325Z,3685
2022-07-28T10:41:07.405Z,3631
2022-07-28T10:47:36.042Z,3551
2022-07-28T10:53:51.401Z,3555
2022-07-28T11:00:13.611Z,3721
2022-07-28T11:06:34.321Z,4069
2022-07-28T11:12:54.367Z,3850
2022-07-28T11:19:36.324Z,4406
2022-07-28T11:25:37.377Z,4631
2022-07-28T11:32:00.326Z,4767
2022-07-28T11:38:20.319Z,4813
2022-07-28T11:44:43.363Z,4694
2022-07-28T11:51:03.342Z,5372
2022-07-28T11:57:26.389Z,6332
2022-07-28T12:03:49.815Z,7335
2022-07-28T12:10:09.316Z,5340
2022-07-28T12:16:29.466Z,4757
2022-07-28T12:22:52.319Z,5167
2022-07-28T12:29:12.361Z,8438
2022-07-28T12:35:35.309Z,5819
2022-07-28T12:41:55.318Z,5678
2022-07-28T12:48:18.360Z,5706
2022-07-28T12:54:38.325Z,9421
2022-07-28T13:01:01.440Z,8839
2022-07-28T13:07:21.313Z,6860
2022-07-28T13:13:44.322Z,7562
2022-07-28T13:20:04.353Z,7241
2022-07-28T13:26:27.314Z,4666
2022-07-28T13:32:47.408Z,6587
2022-07-28T13:39:10.321Z,5541
2022-07-28T13:45:30.502Z,5352
2022-07-28T13:51:53.348Z,6062
2022-07-28T13:58:13.315Z,6194
2022-07-28T14:04:36.371Z,5976
2022-07-28T14:10:56.313Z,5988
2022-07-28T14:17:42.474Z,5251
2022-07-28T14:23:39.324Z,5655
2022-07-28T14:30:03.324Z,5251
2022-07-28T14:54:01.278Z,5100
2022-07-28T15:00:21.331Z,4953
2022-07-28T15:06:44.336Z,5805
2022-07-28T15:13:04.337Z,6054
2022-07-28T15:19:27.323Z,5534
2022-07-28T15:25:47.352Z,4555
2022-07-28T15:32:10.754Z,4062
2022-07-28T15:38:31.541Z,3986
2022-07-28T15:44:54.432Z,4391
2022-07-28T15:51:13.319Z,4195
2022-07-28T15:57:37.463Z,4042
2022-07-28T16:03:57.378Z,3686
2022-07-28T16:10:20.549Z,3478
2022-07-28T16:16:40.328Z,3246
2022-07-28T16:23:03.565Z,3070
2022-07-28T16:29:23.637Z,3101
2022-07-28T16:35:46.333Z,3448
2022-07-28T16:42:06.362Z,3461
2022-07-28T16:48:29.331Z,2782
2022-07-28T16:54:49.310Z,2333
2022-07-28T17:01:12.384Z,2069
2022-07-28T17:07:32.314Z,1720
2022-07-28T17:13:55.392Z,1452
2022-07-28T17:20:15.346Z,1271
2022-07-28T17:32:58.359Z,1099
2022-07-28T17:39:21.312Z,986
2022-07-28T17:45:41.393Z,966
2022-07-28T17:52:04.353Z,953
2022-07-28T17:58:24.325Z,852
2022-07-28T18:04:47.363Z,734
2022-07-28T18:11:07.316Z,624
2022-07-28T18:17:30.346Z,505
2022-07-28T18:23:50.315Z,402
2022-07-28T18:30:13.314Z,345
2022-07-28T18:36:33.332Z,323
2022-07-28T18:42:56.316Z,289
2022-07-28T18:49:16.436Z,218
2022-07-28T18:55:39.306Z,168
2022-07-28T19:01:59.461Z,130
2022-07-28T19:08:22.329Z,98
2022-07-28T19:14:42.323Z,68
2022-07-28T19:21:05.350Z,42
2022-07-28T19:27:25.329Z,24
2022-07-28T19:33:48.359Z,12
2022-07-28T19:40:08.319Z,7
2022-07-28T19:46:31.410Z,2
2022-07-28T19:52:51.358Z,2
2022-07-28T19:59:14.321Z,1
2022-07-28T20:05:34.352Z,0
2022-07-28T20:11:57.327Z,0
2022-07-28T20:18:17.327Z,0
2022-07-28T20:41:06.393Z,0
2022-07-28T20:47:27.324Z,0
2022-07-28T20:53:47.360Z,0
2022-07-28T21:00:10.321Z,0
2022-07-28T21:06:30.310Z,0
2022-07-28T21:12:53.367Z,0
2022-07-28T21:19:13.318Z,0
2022-07-28T21:25:36.366Z,0
2022-07-28T21:32:01.972Z,0
2022-07-28T21:38:19.337Z,0
2022-07-28T21:44:39.340Z,0
2022-07-28T21:51:02.312Z,0
2022-07-28T21:57:25.184Z,0
2022-07-28T22:20:20.370Z,0
2022-07-28T22:26:40.302Z,0
2022-07-28T22:33:03.348Z,0
2022-07-28T22:39:23.316Z,0
2022-07-28T22:45:48.853Z,0
2022-07-28T22:52:06.389Z,0
2022-07-28T22:58:29.320Z,0
2022-07-28T23:04:51.703Z,0
2022-07-28T23:11:12.345Z,0
2022-07-28T23:17:32.312Z,0
2022-07-28T23:23:55.378Z,0
2022-07-28T23:30:15.313Z,0
2022-07-28T23:36:38.378Z,0
2022-07-28T23:42:58.307Z,0
2022-07-28T23:49:21.441Z,0
2022-07-28T23:55:41.344Z,0
